Vilanova de Sau





Hora UTC 20:40
Temperatura 1.9 ºC
Humitat 94.4 %
Pressió 999.2 hPa
Pluja 0.0 mm
Velocitat vent 7.6 km/h
Direcció vent WSW
Radiació solar 0.0 W/m²
Fuel -180.9 %

Dades diàries 2021-11-27



Hora UTC (hivern +1h; estiu +2h)
Temperatura (ºC) Humitat (%) Pressió (hPa) Velocitat vent (km/h) Precipitació (mm) Fuel (%) Radiació solar (W/m²)
Hora UTC Aire Humitat Pressió Vel. Dir. Vel. Max Dir. Intent. màx 5 min. Fuel Rad. Sol.
00:05 3.8 94.7 1000.9 0.0 NNE 0.0 NE 0.0 -180.1 0.0
00:10 3.9 94.3 1000.7 0.0 NNE 0.0 WSW 0.0 -180.0 0.0
00:15 4.0 93.8 1000.6 0.0 NNE 0.0 SSW 0.0 -180.0 0.0
00:20 4.2 93.4 1000.6 0.0 NNE 0.0 W 0.0 -180.0 0.0
00:25 4.3 92.8 1000.3 0.0 N 3.4 N 0.0 -180.0 0.0
00:30 4.3 92.3 1000.3 0.0 NNE 0.0 WNW 0.0 -179.9 0.0
00:35 4.4 91.9 1000.4 0.6 W 6.1 WNW 0.0 -179.9 0.0
00:40 4.4 91.4 1000.4 0.0 NNE 0.0 SW 0.0 -179.9 0.0
00:45 4.5 90.6 1000.3 0.0 NNE 0.0 NNW 0.0 -179.9 0.0
00:50 4.5 89.5 1000.3 0.0 NNE 0.0 ESE 0.0 -179.9 0.0
00:55 4.5 89.4 1000.3 0.0 NNE 0.0 W 0.0 -179.9 0.0
01:00 4.5 89.0 1000.1 0.0 NNE 0.0 W 0.0 -179.9 0.0
01:05 4.4 89.0 1000.0 0.0 NNE 0.0 E 0.0 -180.0 0.0
01:10 4.3 89.3 1000.0 0.0 NNE 0.0 NNE 0.0 -180.0 0.0
01:15 4.1 90.4 1000.1 0.0 NNE 0.0 SSE 0.0 -180.0 0.0
01:20 3.9 91.4 1000.0 0.0 NNE 0.0 NE 0.0 -180.0 0.0
01:25 3.9 91.4 1000.0 0.0 NNE 0.0 SSE 0.0 -180.1 0.0
01:30 3.9 91.0 999.9 0.0 NNE 0.0 SSW 0.0 -180.1 0.0
01:35 3.8 91.0 999.9 0.0 NNE 0.0 SSE 0.0 -180.1 0.0
01:40 3.7 91.9 999.8 0.0 NNE 0.0 SW 0.0 -180.1 0.0
01:45 3.7 91.9 999.7 0.0 NNE 0.0 SSE 0.0 -180.2 0.0
01:50 3.6 91.8 999.7 0.0 NNE 0.0 SE 0.0 -180.2 0.0
01:55 3.4 92.3 999.7 0.0 NNE 0.0 S 0.0 -180.2 0.0
02:00 3.1 92.9 999.7 0.0 NNE 0.0 WSW 0.0 -180.3 0.0
02:05 3.0 93.4 999.6 0.0 NNE 0.0 WNW 0.0 -180.3 0.0
02:10 3.0 93.0 999.5 0.0 NNE 0.0 WNW 0.0 -180.3 0.0
02:15 3.1 92.2 999.5 3.7 W 16.9 WNW 0.0 -180.4 0.0
02:20 3.3 90.2 999.5 0.3 W 8.8 W 0.0 -180.4 0.0
02:25 3.3 89.1 999.4 1.2 WSW 11.5 SW 0.0 -180.4 0.0
02:30 3.2 89.2 999.3 0.0 NNE 0.0 W 0.0 -180.4 0.0
02:35 3.1 89.4 999.2 1.7 WSW 8.8 W 0.0 -180.4 0.0
02:40 3.0 89.4 999.3 5.2 W 14.2 NW 0.0 -180.5 0.0
02:45 2.9 89.6 999.3 5.4 SW 14.2 SSW 0.0 -180.5 0.0
02:50 2.9 89.7 999.1 3.9 WSW 14.2 W 0.0 -180.5 0.0
02:55 2.9 89.8 999.1 7.2 WSW 16.9 NW 0.0 -180.6 0.0
03:00 2.9 89.3 998.9 3.3 SSW 14.2 WSW 0.0 -180.6 0.0
03:05 2.8 89.4 998.8 3.7 SW 11.5 WSW 0.0 -180.6 0.0
03:10 2.7 90.2 998.8 6.6 SW 14.2 WSW 0.0 -180.6 0.0
03:15 2.7 90.7 998.6 7.7 SSW 22.3 SW 0.0 -180.6 0.0
03:20 2.7 90.8 998.6 6.6 S 16.9 S 0.0 -180.6 0.0
03:25 2.7 90.7 998.5 3.0 SSW 11.5 SSW 0.0 -180.6 0.0
03:30 2.7 90.8 998.4 2.5 SW 8.8 SSE 0.0 -180.6 0.0
03:35 2.7 91.1 998.3 0.5 SW 8.8 SSW 0.0 -180.5 0.0
03:40 2.7 91.1 998.2 2.1 WSW 8.8 SW 0.0 -180.5 0.0
03:45 2.7 91.4 998.2 5.1 WSW 14.2 SW 0.0 -180.5 0.0
03:50 2.7 91.6 998.2 5.4 W 11.5 SW 0.0 -180.5 0.0
03:55 2.7 91.5 998.3 2.5 WNW 11.5 NNW 0.0 -180.5 0.0
04:00 2.7 91.6 998.3 3.1 SSW 11.5 S 0.0 -180.5 0.0
04:05 2.7 91.8 998.2 2.6 W 14.2 WNW 0.0 -180.5 0.0
04:10 2.6 91.7 998.2 5.4 W 14.2 WNW 0.0 -180.5 0.0
04:15 2.6 91.7 998.3 2.9 WSW 8.8 NW 0.0 -180.5 0.0
04:20 2.6 91.9 998.1 1.8 NW 11.5 NW 0.0 -180.5 0.0
04:25 2.6 92.1 998.0 2.8 ESE 8.8 SE 0.0 -180.5 0.0
04:30 2.5 92.0 998.0 4.3 ENE 11.5 NE 0.0 -180.5 0.0
04:35 2.5 91.9 997.9 2.2 E 6.1 ENE 0.0 -180.5 0.0
04:40 2.5 91.3 997.8 0.5 S 8.8 SW 0.0 -180.5 0.0
04:45 2.6 90.8 997.8 1.4 WSW 8.8 WSW 0.0 -180.5 0.0
04:50 2.6 90.4 997.7 0.0 NNE 0.0 WSW 0.0 -180.4 0.0
04:55 2.7 90.8 997.6 0.0 NNE 0.0 S 0.0 -180.4 0.0
05:00 2.7 90.9 997.6 0.0 NNE 0.0 SE 0.0 -180.3 0.0
05:05 2.7 91.1 997.5 0.0 NNE 0.0 ENE 0.0 -180.3 0.0
05:10 2.6 91.4 997.4 0.0 NNE 0.0 ENE 0.0 -180.3 0.0
05:15 2.7 91.8 997.5 0.0 NNE 0.0 ESE 0.0 -180.3 0.0
05:20 2.6 91.5 997.5 0.0 NNE 0.0 ENE 0.0 -180.2 0.0
05:25 2.6 91.5 997.4 0.0 NNE 0.0 NNW 0.0 -180.2 0.0
05:30 2.6 91.3 997.3 0.0 NNE 0.0 E 0.0 -180.3 0.0
05:35 2.6 91.2 997.2 2.7 E 11.5 ESE 0.0 -180.3 0.0
05:40 2.6 91.1 997.2 2.7 S 8.8 S 0.0 -180.3 0.0
05:45 2.6 90.5 997.3 4.5 SSW 11.5 WSW 0.0 -180.4 0.0
05:50 2.7 90.8 997.3 0.2 SSW 6.1 SSW 0.0 -180.4 0.0
05:55 2.7 90.9 997.3 0.0 NNE 0.0 SE 0.0 -180.4 0.0
06:00 2.6 91.1 997.4 1.6 NE 8.8 NE 0.0 -180.4 0.0
06:05 2.6 91.4 997.4 1.4 ENE 8.8 NE 0.0 -180.4 0.0
06:10 2.7 91.6 997.4 0.0 NNE 0.0 ENE 0.0 -180.4 0.0
06:15 2.6 91.8 997.4 0.0 NNE 0.0 E 0.0 -180.4 0.0
06:20 2.6 91.3 997.3 1.5 WNW 11.5 NW 0.0 -180.4 0.0
06:25 2.7 90.5 997.3 0.2 N 6.1 N 0.0 -180.4 0.0
06:30 2.7 90.5 997.1 0.0 NNE 0.0 ESE 0.0 -180.4 0.0
06:35 2.8 90.5 997.0 0.0 NNE 0.0 WSW 0.0 -180.4 0.0
06:40 2.8 90.2 996.9 1.1 ESE 14.2 SE 0.0 -180.4 0.1
06:45 2.8 90.1 996.9 2.7 SSE 11.5 SE 0.0 -180.4 0.2
06:50 2.9 90.1 996.9 0.7 E 8.8 E 0.0 -180.4 0.6
06:55 2.9 90.0 996.8 8.0 SSW 14.2 S 0.0 -180.4 0.9
07:00 2.9 89.7 996.9 5.5 SSW 11.5 SSW 0.0 -180.4 1.7
07:05 2.9 89.8 996.9 7.4 SSW 14.2 SSE 0.0 -180.4 2.7
07:10 3.0 89.8 996.9 4.5 SSW 14.2 S 0.0 -180.4 3.9
07:15 3.0 89.8 996.8 7.4 SSW 16.9 S 0.0 -180.4 5.9
07:20 3.0 89.4 996.9 3.4 SSE 11.5 SSE 0.0 -180.5 6.7
07:25 3.1 89.4 996.8 4.8 SSW 14.2 S 0.0 -180.4 8.5
07:30 3.1 89.3 996.8 5.2 SW 11.5 WSW 0.0 -180.4 14.4
07:35 3.2 89.4 996.7 1.8 S 11.5 SW 0.0 -180.4 14.6
07:40 3.2 89.4 996.8 3.9 S 11.5 SSE 0.0 -180.3 15.6
07:45 3.2 89.3 996.8 3.1 SE 11.5 E 0.0 -180.3 11.9
07:50 3.2 89.6 996.9 1.7 E 8.8 ESE 0.0 -180.3 14.7
07:55 3.2 89.9 997.0 3.8 E 11.5 E 0.0 -180.3 13.0
08:00 3.2 89.9 997.0 2.9 NNE 8.8 NNE 0.0 -180.3 18.8
08:05 3.3 89.9 997.1 6.1 NE 11.5 ENE 0.0 -180.3 16.8
08:10 3.3 90.2 997.1 5.6 NE 8.8 NNE 0.0 -180.3 15.8
08:15 3.2 90.3 997.2 3.7 NE 11.5 NNE 0.0 -180.3 17.4
08:20 3.2 90.2 997.2 1.9 NNE 8.8 NNW 0.0 -180.3 22.8
08:25 3.2 90.2 997.2 0.3 NE 6.1 NE 0.0 -180.2 26.8
08:30 3.1 90.5 997.2 0.0 NNE 0.0 ENE 0.0 -180.2 30.1
08:35 3.1 90.4 997.1 0.0 NNE 0.0 E 0.0 -180.2 31.2
08:40 3.2 90.2 997.1 0.0 NNE 0.0 SE 0.0 -180.2 57.1
08:45 3.3 89.7 996.9 0.0 NNE 0.0 NE 0.0 -180.1 54.8
08:50 3.4 89.5 996.9 0.0 NNE 0.0 NE 0.0 -180.0 44.7
08:55 3.5 89.3 996.9 0.0 NNE 0.0 NNE 0.0 -180.0 58.2
09:00 3.5 89.3 996.9 0.0 NNE 0.0 NE 0.0 -179.9 67.4
09:05 3.5 89.0 996.8 0.0 NNE 0.0 NE 0.0 -180.0 74.1
09:10 3.6 88.7 996.8 0.0 NNE 0.0 NE 0.0 -179.9 85.9
09:15 3.7 88.3 996.8 0.0 NNE 0.0 NNE 0.0 -179.9 87.0
09:20 3.7 88.1 996.9 4.2 E 8.8 ESE 0.0 -179.9 79.1
09:25 3.7 88.2 997.0 1.3 E 6.1 E 0.0 -179.9 78.8
09:30 3.8 88.2 997.0 0.0 NNE 0.0 NE 0.0 -179.9 83.2
09:35 3.9 87.7 997.0 0.0 NNE 0.0 E 0.0 -179.8 87.0
09:40 4.0 87.7 997.0 0.0 NNE 0.0 NW 0.0 -179.8 87.4
09:45 4.0 87.5 997.0 0.0 NNE 0.0 ENE 0.0 -179.8 89.3
09:50 4.2 87.9 997.1 1.9 N 8.8 N 0.0 -179.8 89.2
09:55 4.3 87.5 997.2 0.9 NNE 6.1 NE 0.0 -179.8 84.1
10:00 4.3 86.6 997.2 0.6 NNE 6.1 ENE 0.0 -179.7 84.0
10:05 4.3 86.6 997.1 5.4 ENE 8.8 ENE 0.0 -179.7 96.0
10:10 4.4 86.7 997.1 4.7 E 11.5 E 0.0 -179.8 101.7
10:15 4.5 86.9 997.1 3.8 ENE 8.8 E 0.0 -179.8 100.7
10:20 4.6 86.3 997.1 2.4 NE 8.8 ENE 0.0 -179.8 97.8
10:25 4.8 86.6 997.1 4.2 NNE 11.5 ENE 0.0 -179.8 107.8
10:30 4.7 85.7 997.1 7.0 NE 14.2 ENE 0.0 -179.7 105.7
10:35 4.6 86.3 997.0 7.6 ENE 14.2 ENE 0.0 -179.8 107.8
10:40 4.5 86.1 997.0 7.4 ENE 11.5 NE 0.0 -179.8 105.2
10:45 4.6 86.3 997.0 8.4 ENE 14.2 NE 0.0 -179.8 110.2
10:50 4.4 85.8 996.9 4.5 E 11.5 E 0.0 -179.9 125.7
10:55 4.5 85.9 996.9 3.2 ESE 8.8 SE 0.0 -179.8 130.6
11:00 4.6 85.4 996.9 2.7 E 6.1 E 0.0 -179.8 111.6
11:05 4.7 85.5 996.9 4.1 ENE 8.8 NE 0.0 -179.7 99.6
11:10 4.8 85.2 996.8 4.3 ENE 8.8 ENE 0.0 -179.7 111.7
11:15 4.9 85.3 996.8 3.5 ENE 8.8 ENE 0.0 -179.7 114.2
11:20 4.9 85.2 996.8 4.1 NNE 8.8 NNE 0.0 -179.7 96.4
11:25 5.0 84.7 996.8 2.6 NNE 6.1 NNE 0.0 -179.6 92.9
11:30 5.1 84.5 996.9 3.4 NE 8.8 NE 0.0 -179.6 73.9
11:35 5.0 84.6 996.9 4.5 ENE 8.8 ENE 0.0 -179.6 69.5
11:40 4.9 84.6 996.8 4.6 NE 8.8 ENE 0.0 -179.7 72.8
11:45 5.0 85.1 996.8 1.9 NE 6.1 NNW 0.0 -179.7 84.2
11:50 5.1 84.0 996.9 1.1 NE 6.1 ENE 0.0 -179.6 89.2
11:55 5.2 83.7 996.8 1.3 NE 6.1 NNE 0.0 -179.6 103.6
12:00 5.4 82.9 996.8 0.8 E 6.1 E 0.0 -179.5 154.8
12:05 5.5 82.6 996.7 0.0 NNE 0.0 E 0.0 -179.4 167.4
12:10 5.8 81.8 996.6 0.5 S 3.4 S 0.0 -179.3 191.6
12:15 6.1 81.0 996.6 0.8 SSE 6.1 SE 0.0 -179.3 499.2
12:20 6.5 79.0 996.5 0.2 SE 3.4 SE 0.0 -179.2 539.0
12:25 7.2 77.3 996.4 3.2 ESE 8.8 ESE 0.0 -179.1 544.2
12:30 7.1 76.5 996.5 1.8 ENE 6.1 E 0.0 -179.0 421.4
12:35 7.3 76.4 996.5 3.4 E 11.5 ENE 0.0 -179.0 306.8
12:40 7.2 78.1 996.5 6.1 ENE 14.2 E 0.0 -179.0 197.8
12:45 7.2 77.3 996.4 2.0 NNW 8.8 ESE 0.0 -179.0 179.5
12:50 7.3 76.6 996.3 3.3 WNW 11.5 WNW 0.0 -179.0 216.6
12:55 7.4 76.7 996.2 5.3 NNE 14.2 NNE 0.0 -179.0 249.9
13:00 7.6 74.8 996.2 5.8 WNW 14.2 NNW 0.0 -179.0 240.1
13:05 7.7 74.1 996.3 4.4 NNE 16.9 NE 0.0 -179.0 276.3
13:10 7.7 72.9 996.2 5.3 NNE 14.2 NNE 0.0 -179.0 214.9
13:15 7.8 73.4 996.0 3.8 N 8.8 WNW 0.0 -179.0 223.5
13:20 7.8 73.8 996.0 4.0 NE 8.8 ENE 0.0 -179.0 252.9
13:25 7.9 73.0 995.9 5.4 NE 14.2 NNE 0.0 -179.0 299.1
13:30 7.9 72.7 995.9 4.2 NE 8.8 E 0.0 -179.0 235.7
13:35 7.8 73.4 996.0 5.5 NE 11.5 NNE 0.0 -179.0 184.5
13:40 7.8 74.6 995.9 4.4 E 11.5 ENE 0.0 -179.0 164.0
13:45 7.8 74.6 995.8 3.3 ENE 8.8 ENE 0.0 -179.0 150.6
13:50 7.8 73.9 996.0 1.1 E 6.1 ENE 0.0 -179.0 222.5
13:55 7.9 73.4 996.0 2.9 SE 6.1 SSE 0.0 -179.0 150.7
14:00 7.9 73.8 995.9 2.9 S 6.1 SE 0.0 -179.0 123.1
14:05 8.0 74.2 995.9 3.7 SSE 8.8 ESE 0.0 -179.0 170.6
14:10 8.0 74.3 995.8 5.0 SSE 8.8 ESE 0.0 -179.0 126.4
14:15 7.8 74.2 995.7 3.6 SE 11.5 SE 0.0 -179.0 96.0
14:20 7.8 74.7 995.7 3.5 WSW 8.8 SW 0.0 -179.1 128.5
14:25 7.6 74.9 995.9 6.0 WSW 11.5 SW 0.0 -179.1 110.5
14:30 7.5 75.3 996.1 6.4 WSW 14.2 WSW 0.0 -179.2 128.0
14:35 7.4 74.3 996.2 7.3 WSW 14.2 W 0.0 -179.3 64.4
14:40 7.4 73.5 996.2 5.9 SSW 11.5 SSW 0.0 -179.3 78.3
14:45 7.4 74.8 996.2 1.3 SSW 6.1 SSW 0.0 -179.3 54.5
14:50 7.2 78.2 996.3 1.1 W 6.1 W 0.0 -179.3 49.6
14:55 6.9 78.1 996.4 2.9 W 6.1 W 0.0 -179.3 53.5
15:00 6.8 80.8 996.5 3.1 SW 8.8 WSW 0.0 -179.4 58.4
15:05 6.7 81.7 996.4 3.5 SW 6.1 SW 0.0 -179.4 61.0
15:10 6.5 81.7 996.4 3.8 SW 8.8 SW 0.0 -179.4 56.6
15:15 6.6 81.5 996.5 4.3 WSW 8.8 SW 0.0 -179.5 51.0
15:20 6.6 81.2 996.6 2.9 WSW 8.8 W 0.0 -179.5 42.6
15:25 6.4 83.8 996.7 3.8 WSW 6.1 WSW 0.0 -179.5 34.6
15:30 6.3 82.0 996.7 3.7 WSW 8.8 WSW 0.0 -179.5 31.6
15:35 6.3 83.2 996.8 1.8 WSW 6.1 WSW 0.0 -179.6 29.9
15:40 6.0 84.1 996.8 1.9 WSW 6.1 W 0.0 -179.6 28.3
15:45 6.0 83.0 996.9 0.7 W 3.4 WNW 0.0 -179.6 25.9
15:50 5.7 86.8 996.9 1.3 SW 6.1 SW 0.0 -179.6 22.1
15:55 5.5 87.4 996.9 3.2 SW 11.5 SSW 0.0 -179.6 17.8
16:00 5.7 84.3 996.9 3.3 SW 11.5 SW 0.0 -179.7 13.8
16:05 5.7 84.2 996.9 6.1 WSW 14.2 WSW 0.0 -179.7 8.5
16:10 6.2 80.6 996.9 6.2 WSW 11.5 W 0.0 -179.7 5.2
16:15 6.0 81.7 997.0 5.9 WSW 11.5 SW 0.0 -179.7 4.2
16:20 6.1 80.5 997.0 7.4 WSW 14.2 SW 0.0 -179.8 3.3
16:25 6.2 79.3 997.0 6.0 WSW 11.5 SW 0.0 -179.8 3.0
16:30 6.3 77.7 997.0 6.4 WSW 14.2 W 0.0 -179.8 1.3
16:35 6.6 76.0 997.1 7.3 WSW 14.2 W 0.0 -179.7 0.3
16:40 6.6 77.6 997.1 6.0 WSW 14.2 WSW 0.0 -179.7 0.1
16:45 6.5 77.7 997.3 3.8 WSW 8.8 WNW 0.0 -179.7 0.0
16:50 6.6 77.5 997.4 2.9 W 14.2 WSW 0.0 -179.7 0.0
16:55 6.2 79.1 997.4 4.0 NNE 6.1 NW 0.0 -179.7 0.0
17:00 5.4 84.4 997.4 2.9 NE 6.1 NE 0.0 -179.7 0.0
17:05 5.0 86.9 997.6 0.9 WNW 6.1 WNW 0.0 -179.8 0.0
17:10 4.9 87.6 997.7 1.1 WSW 3.4 WNW 0.0 -179.8 0.0
17:15 4.7 89.3 997.7 1.3 WSW 6.1 SW 0.0 -179.8 0.0
17:20 4.5 89.8 997.7 1.2 W 6.1 W 0.0 -179.9 0.0
17:25 4.4 90.4 997.7 4.7 SW 8.8 SW 0.0 -179.9 0.0
17:30 5.3 86.2 997.8 4.4 SSW 11.5 SSW 0.0 -179.9 0.0
17:35 5.4 84.1 997.8 3.0 WSW 6.1 WSW 0.0 -179.9 0.0
17:40 5.4 84.0 997.8 5.3 SW 14.2 WSW 0.0 -179.9 0.0
17:45 5.5 83.3 997.9 0.5 E 6.1 WSW 0.0 -179.9 0.0
17:50 5.0 85.8 997.9 1.2 W 6.1 WSW 0.0 -179.9 0.0
17:55 4.8 86.6 997.9 1.8 WSW 6.1 WSW 0.0 -180.0 0.0
18:00 4.5 88.6 998.0 4.2 SW 6.1 SW 0.0 -180.0 0.0
18:05 4.1 90.0 998.0 5.1 WSW 11.5 W 0.0 -180.1 0.0
18:10 4.5 88.1 998.0 7.9 WSW 14.2 WSW 0.0 -180.1 0.0
18:15 5.0 85.0 998.2 5.3 WSW 11.5 SW 0.0 -180.2 0.0
18:20 4.8 83.9 998.3 1.8 NE 8.8 NE 0.0 -180.1 0.0
18:25 3.8 87.7 998.4 1.9 ENE 6.1 ENE 0.0 -180.1 0.0
18:30 3.6 89.7 998.5 0.2 NNE 3.4 N 0.0 -180.2 0.0
18:35 3.4 90.9 998.5 3.5 WSW 6.1 WSW 0.0 -180.2 0.0
18:40 3.1 92.2 998.5 3.9 WSW 6.1 WSW 0.0 -180.3 0.0
18:45 3.1 92.5 998.4 5.7 WSW 11.5 WSW 0.0 -180.4 0.0
18:50 3.1 92.1 998.5 4.3 WSW 8.8 WSW 0.0 -180.4 0.0
18:55 3.0 92.5 998.5 1.1 SW 6.1 WSW 0.0 -180.5 0.0
19:00 2.7 92.5 998.6 0.6 SW 6.1 SW 0.0 -180.5 0.0
19:05 2.5 93.3 998.5 3.8 SW 6.1 SW 0.0 -180.5 0.0
19:10 2.3 94.0 998.5 3.8 SW 6.1 SW 0.0 -180.6 0.0
19:15 2.3 94.5 998.6 1.2 SSW 6.1 SW 0.0 -180.6 0.0
19:20 2.3 94.8 998.7 2.6 WNW 8.8 NNW 0.0 -180.6 0.0
19:25 2.3 94.0 998.7 5.2 WSW 6.1 SW 0.0 -180.7 0.0
19:30 2.1 94.4 998.7 6.2 WSW 8.8 WSW 0.0 -180.7 0.0
19:35 2.1 94.8 998.7 4.3 WSW 8.8 WSW 0.0 -180.8 0.0
19:40 2.0 95.0 998.7 2.8 SW 6.1 WSW 0.0 -180.8 0.0
19:45 1.9 95.2 998.7 1.3 ESE 6.1 ENE 0.0 -180.8 0.0
19:50 1.7 95.5 998.8 0.6 ESE 6.1 ESE 0.0 -180.8 0.0
19:55 1.8 95.9 998.9 3.4 SW 8.8 SW 0.0 -180.8 0.0
20:00 2.0 96.0 998.9 5.4 SW 8.8 WSW 0.0 -180.8 0.0
20:05 1.8 95.3 999.0 6.7 SW 11.5 SW 0.0 -180.8 0.0
20:10 1.8 95.4 999.0 3.5 SSW 8.8 SW 0.0 -180.9 0.0
20:15 1.6 95.0 999.0 0.5 SSE 3.4 SE 0.0 -180.9 0.0
20:20 1.4 95.2 999.1 2.0 SSW 6.1 S 0.0 -180.9 0.0
20:25 1.6 95.6 999.2 3.1 SW 6.1 WSW 0.0 -180.9 0.0
20:30 1.4 95.4 999.2 4.3 WSW 11.5 SW 0.0 -180.9 0.0
20:35 1.8 95.8 999.2 7.3 WSW 11.5 WSW 0.0 -180.9 0.0
20:40 1.9 94.4 999.2 7.6 WSW 11.5 SW 0.0 -180.9 0.0
Màxima 8.1 96.0 1000.9 8.4 ENE 22.3 SW 0.0 -179.0 544.2
Mínima 1.3 72.7 995.7 -180.9
Total 0.0